createdAt,value
2022-09-06T00:00:29.366Z,76.89
2022-09-06T00:02:57.920Z,76.87
2022-09-06T00:05:27.598Z,76.55
2022-09-06T00:07:55.670Z,76.50
2022-09-06T00:10:23.640Z,76.42
2022-09-06T00:12:51.624Z,76.20
2022-09-06T00:15:19.689Z,76.38
2022-09-06T00:17:48.227Z,76.14
2022-09-06T00:20:16.466Z,76.12
2022-09-06T00:22:44.403Z,76.88
2022-09-06T00:25:12.481Z,76.53
2022-09-06T00:27:40.526Z,76.88
2022-09-06T00:30:09.312Z,77.11
2022-09-06T00:32:37.265Z,77.26
2022-09-06T00:35:06.377Z,78.61
2022-09-06T00:37:34.365Z,78.02
2022-09-06T00:40:02.516Z,77.51
2022-09-06T00:42:30.829Z,77.18
2022-09-06T00:44:59.207Z,76.96
2022-09-06T00:47:29.125Z,77.04
2022-09-06T00:49:59.243Z,77.22
2022-09-06T00:52:27.929Z,76.69
2022-09-06T00:54:56.452Z,76.59
2022-09-06T00:57:32.017Z,76.66
2022-09-06T01:00:00.483Z,76.65
2022-09-06T01:02:28.462Z,76.89
2022-09-06T01:04:58.880Z,77.19
2022-09-06T01:07:29.728Z,77.07
2022-09-06T01:10:16.208Z,76.81
2022-09-06T01:13:02.787Z,76.99
2022-09-06T01:15:49.374Z,76.89
2022-09-06T01:18:36.003Z,76.64
2022-09-06T01:21:07.145Z,76.51
2022-09-06T01:23:52.815Z,76.42
2022-09-06T01:26:40.977Z,76.50
2022-09-06T01:29:22.056Z,76.34
2022-09-06T01:31:53.937Z,76.53
2022-09-06T01:34:24.893Z,76.67
2022-09-06T01:37:13.942Z,76.43
2022-09-06T01:39:42.030Z,76.13
2022-09-06T01:42:09.985Z,76.22
2022-09-06T01:44:41.096Z,76.26
2022-09-06T01:47:18.052Z,76.23
2022-09-06T01:49:48.669Z,76.34
2022-09-06T01:52:20.940Z,76.44
2022-09-06T01:55:07.263Z,76.80
2022-09-06T01:57:37.865Z,76.64
2022-09-06T02:00:09.335Z,76.57
2022-09-06T02:02:53.809Z,76.65
2022-09-06T02:05:28.962Z,76.69
2022-09-06T02:07:59.640Z,76.74
2022-09-06T02:10:30.231Z,76.77
2022-09-06T02:13:01.004Z,76.67
2022-09-06T02:15:31.512Z,76.25
2022-09-06T02:18:06.008Z,76.72
2022-09-06T02:20:36.948Z,76.92
2022-09-06T02:23:06.816Z,76.74
2022-09-06T02:25:38.817Z,76.98
2022-09-06T02:28:07.678Z,77.15
2022-09-06T02:30:38.684Z,77.22
2022-09-06T02:33:11.889Z,77.30
2022-09-06T02:35:47.288Z,77.29
2022-09-06T02:38:16.000Z,77.39
2022-09-06T02:40:44.684Z,77.79
2022-09-06T02:43:12.585Z,78.45
2022-09-06T02:45:40.767Z,78.64
2022-09-06T02:48:08.611Z,79.01
2022-09-06T02:50:37.138Z,78.94
2022-09-06T02:53:06.000Z,78.75
2022-09-06T02:55:34.024Z,78.70
2022-09-06T02:58:02.235Z,78.46
2022-09-06T03:00:30.507Z,78.36
2022-09-06T03:02:58.708Z,78.10
2022-09-06T03:05:27.747Z,78.22
2022-09-06T03:07:55.920Z,78.38
2022-09-06T03:10:25.064Z,78.43
2022-09-06T03:12:53.422Z,78.35
2022-09-06T03:15:21.814Z,78.44
2022-09-06T03:17:49.769Z,78.41
2022-09-06T03:20:17.955Z,78.29
2022-09-06T03:22:45.814Z,78.40
2022-09-06T03:25:14.177Z,78.54
2022-09-06T03:27:43.624Z,78.52
2022-09-06T03:30:12.083Z,78.62
2022-09-06T03:32:39.988Z,78.62
2022-09-06T03:35:09.387Z,78.79
2022-09-06T03:37:37.331Z,78.89
2022-09-06T03:40:06.408Z,79.46
2022-09-06T03:42:34.403Z,79.56
2022-09-06T03:45:02.497Z,79.59
2022-09-06T03:47:30.361Z,79.64
2022-09-06T03:49:58.348Z,79.64
2022-09-06T03:52:26.164Z,79.63
2022-09-06T03:54:53.995Z,79.92
2022-09-06T03:57:22.158Z,80.09
2022-09-06T03:59:50.046Z,80.10
2022-09-06T04:02:18.155Z,80.23
2022-09-06T04:04:46.404Z,80.79
2022-09-06T04:07:14.467Z,80.84
2022-09-06T04:09:42.462Z,80.77
2022-09-06T04:12:10.498Z,82.68
2022-09-06T04:14:38.571Z,82.74
2022-09-06T04:17:07.257Z,82.17
2022-09-06T04:19:35.250Z,82.08
2022-09-06T04:22:03.451Z,81.80
2022-09-06T04:24:31.678Z,81.53
2022-09-06T04:26:59.955Z,81.55
2022-09-06T04:29:28.299Z,81.61
2022-09-06T04:31:56.185Z,81.59
2022-09-06T04:34:24.360Z,81.91
2022-09-06T04:36:52.684Z,81.70
2022-09-06T04:39:20.622Z,81.51
2022-09-06T04:41:48.735Z,81.38
2022-09-06T04:44:16.675Z,81.79
2022-09-06T04:46:44.838Z,81.69
2022-09-06T04:49:12.917Z,81.37
2022-09-06T04:51:41.290Z,81.07
2022-09-06T04:54:09.518Z,80.81
2022-09-06T04:56:37.535Z,80.93
2022-09-06T04:59:05.613Z,80.84
2022-09-06T05:01:33.803Z,81.17
2022-09-06T05:04:01.910Z,81.28
2022-09-06T05:06:29.824Z,81.75
2022-09-06T05:08:57.697Z,81.82
2022-09-06T05:11:25.637Z,81.81
2022-09-06T05:13:53.731Z,82.76
2022-09-06T05:16:21.684Z,83.71
2022-09-06T05:18:49.829Z,82.53
2022-09-06T05:21:18.185Z,82.19
2022-09-06T05:23:46.726Z,81.90
2022-09-06T05:26:14.749Z,81.80
2022-09-06T05:28:42.924Z,81.56
2022-09-06T05:31:23.937Z,81.64
2022-09-06T05:33:53.670Z,81.80
2022-09-06T05:36:23.538Z,81.75
2022-09-06T05:38:52.110Z,82.53
2022-09-06T05:41:20.651Z,84.51
2022-09-06T05:43:48.864Z,84.95
2022-09-06T05:46:17.125Z,83.66
2022-09-06T05:48:51.625Z,82.94
2022-09-06T05:51:20.105Z,82.40
2022-09-06T05:53:48.448Z,82.11
2022-09-06T05:56:16.928Z,81.90
2022-09-06T05:58:45.242Z,81.24
2022-09-06T06:01:16.333Z,80.97
2022-09-06T06:03:50.833Z,80.67
2022-09-06T06:06:19.801Z,80.51
2022-09-06T06:08:50.251Z,80.42
2022-09-06T06:11:18.598Z,80.20
2022-09-06T06:13:47.398Z,79.87
2022-09-06T06:16:16.785Z,79.58
2022-09-06T06:18:48.784Z,79.53
2022-09-06T06:21:26.154Z,79.69
2022-09-06T06:23:58.398Z,79.47
2022-09-06T06:26:27.403Z,79.05
2022-09-06T06:28:57.642Z,78.92
2022-09-06T06:31:25.612Z,78.94
2022-09-06T06:33:53.637Z,78.91
2022-09-06T06:36:23.701Z,78.99
2022-09-06T06:38:54.059Z,78.89
2022-09-06T06:41:26.320Z,79.23
2022-09-06T06:44:12.291Z,78.92
2022-09-06T06:46:41.897Z,78.57
2022-09-06T06:49:09.835Z,77.78
2022-09-06T06:51:37.949Z,77.03
2022-09-06T06:54:06.526Z,77.10
2022-09-06T06:56:36.086Z,77.35
2022-09-06T06:59:05.953Z,76.74
2022-09-06T07:01:35.329Z,76.32
2022-09-06T07:04:03.704Z,75.76
2022-09-06T07:12:21.802Z,75.21
2022-09-06T07:14:49.938Z,75.59
2022-09-06T07:17:17.745Z,75.37
2022-09-06T07:22:33.754Z,75.33
2022-09-06T07:25:02.239Z,75.37
2022-09-06T07:30:14.538Z,73.81
2022-09-06T07:32:42.510Z,72.60
2022-09-06T07:35:12.503Z,71.87
2022-09-06T07:37:40.320Z,71.28
2022-09-06T07:40:08.607Z,69.65
2022-09-06T07:42:36.996Z,66.93
2022-09-06T07:45:05.964Z,63.32
2022-09-06T07:53:14.013Z,55.88
2022-09-06T07:55:43.923Z,55.23
2022-09-06T07:58:11.728Z,57.17
2022-09-06T08:00:41.579Z,56.81
2022-09-06T08:03:10.495Z,54.99
2022-09-06T08:11:15.170Z,52.97
2022-09-06T08:13:43.637Z,53.15
2022-09-06T08:16:12.788Z,54.03
2022-09-06T08:18:40.840Z,55.33
2022-09-06T08:21:13.171Z,55.14
2022-09-06T08:23:44.957Z,54.81
2022-09-06T08:26:14.532Z,54.26
2022-09-06T08:28:42.821Z,52.81
2022-09-06T08:31:12.107Z,52.50
2022-09-06T08:33:41.169Z,51.42
2022-09-06T08:36:09.597Z,50.95
2022-09-06T08:38:37.838Z,50.09
2022-09-06T08:41:10.096Z,49.92
2022-09-06T08:43:38.835Z,49.95
2022-09-06T08:46:07.851Z,48.77
2022-09-06T08:48:39.752Z,48.35
2022-09-06T08:51:27.499Z,47.37
2022-09-06T08:54:00.110Z,47.11
2022-09-06T08:56:37.685Z,46.40
2022-09-06T08:59:14.626Z,46.77
2022-09-06T09:01:55.196Z,47.05
2022-09-06T09:04:24.850Z,46.18
2022-09-06T09:06:56.021Z,47.57
2022-09-06T09:09:23.970Z,47.67
2022-09-06T09:11:51.968Z,47.43
2022-09-06T09:14:23.077Z,46.93
2022-09-06T09:16:52.781Z,46.71
2022-09-06T09:19:20.949Z,45.43
2022-09-06T09:21:48.839Z,45.97
2022-09-06T09:24:16.796Z,45.90
2022-09-06T09:26:55.413Z,42.37
2022-09-06T09:29:27.978Z,41.09
2022-09-06T09:31:57.767Z,40.39
2022-09-06T09:34:28.379Z,39.93
2022-09-06T09:40:00.967Z,42.07
2022-09-06T09:42:31.260Z,40.59
2022-09-06T09:44:59.934Z,41.41
2022-09-06T09:47:29.978Z,41.42
2022-09-06T09:49:58.758Z,41.57
2022-09-06T09:52:31.114Z,38.66
2022-09-06T09:55:02.652Z,39.96
2022-09-06T09:57:42.504Z,40.38
2022-09-06T10:00:13.303Z,40.05
2022-09-06T10:02:42.347Z,40.25
2022-09-06T10:05:13.274Z,41.03
2022-09-06T10:07:46.192Z,39.29
2022-09-06T10:10:15.104Z,39.39
2022-09-06T10:12:43.232Z,39.08
2022-09-06T10:15:12.548Z,36.19
2022-09-06T10:17:52.916Z,36.22
2022-09-06T10:20:23.233Z,35.49
2022-09-06T10:22:51.345Z,32.88
2022-09-06T10:25:37.093Z,35.59
2022-09-06T10:28:21.407Z,37.47
2022-09-06T10:30:58.503Z,39.25
2022-09-06T10:33:30.340Z,39.55
2022-09-06T10:36:00.922Z,37.93
2022-09-06T10:38:35.962Z,34.11
2022-09-06T10:41:22.475Z,35.39
2022-09-06T10:43:59.721Z,36.91
2022-09-06T10:46:29.304Z,37.87
2022-09-06T10:48:57.988Z,37.88
2022-09-06T10:51:28.877Z,36.70
2022-09-06T10:54:01.206Z,39.11
2022-09-06T10:56:47.958Z,39.23
2022-09-06T10:59:38.203Z,40.56
2022-09-06T11:02:25.554Z,40.10
2022-09-06T11:10:32.065Z,39.90
2022-09-06T11:13:03.402Z,40.75
2022-09-06T11:15:36.331Z,40.03
2022-09-06T11:18:07.051Z,39.72
2022-09-06T11:20:41.063Z,38.08
2022-09-06T11:23:27.603Z,38.50
2022-09-06T11:26:13.858Z,39.22
2022-09-06T11:28:47.670Z,40.09
2022-09-06T11:34:19.760Z,39.19
2022-09-06T11:36:52.434Z,38.98
2022-09-06T11:42:38.013Z,38.57
2022-09-06T11:45:06.568Z,37.81
2022-09-06T11:47:40.404Z,37.73
2022-09-06T11:50:37.534Z,37.88
2022-09-06T11:53:15.834Z,38.17
2022-09-06T11:55:45.473Z,38.13
2022-09-06T11:58:16.551Z,38.43
2022-09-06T12:00:45.625Z,38.28
2022-09-06T12:06:24.985Z,39.59
2022-09-06T12:08:53.693Z,39.52
2022-09-06T12:11:21.933Z,38.06
2022-09-06T12:14:13.159Z,38.04
2022-09-06T12:17:13.315Z,37.71
2022-09-06T12:19:45.949Z,38.20
2022-09-06T12:22:41.304Z,39.36
2022-09-06T12:25:18.636Z,38.95
2022-09-06T12:27:52.673Z,39.99
2022-09-06T12:30:32.408Z,40.22
2022-09-06T12:33:00.728Z,40.41
2022-09-06T12:38:24.234Z,42.04
2022-09-06T12:40:58.332Z,41.34
2022-09-06T12:43:27.174Z,40.55
2022-09-06T12:45:55.352Z,39.22
2022-09-06T12:48:30.863Z,38.27
2022-09-06T12:51:03.287Z,38.61
2022-09-06T12:53:31.801Z,39.19
2022-09-06T12:56:19.901Z,39.59
2022-09-06T12:58:47.708Z,38.20
2022-09-06T13:01:22.894Z,38.34
2022-09-06T13:04:03.025Z,38.96
2022-09-06T13:06:34.163Z,38.83
2022-09-06T13:09:02.415Z,40.52
2022-09-06T13:11:38.605Z,39.42
2022-09-06T13:14:14.251Z,39.71
2022-09-06T13:16:45.473Z,37.82
2022-09-06T13:19:30.196Z,38.31
2022-09-06T13:21:58.817Z,38.00
2022-09-06T13:24:32.826Z,38.19
2022-09-06T13:27:01.291Z,37.49
2022-09-06T13:29:33.437Z,37.00
2022-09-06T13:32:02.426Z,36.50
2022-09-06T13:34:32.266Z,37.45
2022-09-06T13:37:10.388Z,37.17
2022-09-06T13:39:44.107Z,37.05
2022-09-06T13:42:25.716Z,35.82
2022-09-06T13:44:53.589Z,36.69
2022-09-06T13:47:21.416Z,36.38
2022-09-06T13:49:51.141Z,37.47
2022-09-06T13:52:19.029Z,38.46
2022-09-06T13:54:48.947Z,38.23
2022-09-06T13:57:22.187Z,37.53
2022-09-06T13:59:52.220Z,38.26
2022-09-06T14:02:21.172Z,37.89
2022-09-06T14:04:49.785Z,37.15
2022-09-06T14:07:17.805Z,36.68
2022-09-06T14:09:45.899Z,36.48
2022-09-06T14:12:13.912Z,36.31
2022-09-06T14:14:41.809Z,36.85
2022-09-06T14:17:09.986Z,37.31
2022-09-06T14:19:37.840Z,38.15
2022-09-06T14:22:07.083Z,39.43
2022-09-06T14:24:35.202Z,38.77
2022-09-06T14:27:05.245Z,38.72
2022-09-06T14:29:34.934Z,38.51
2022-09-06T14:32:03.209Z,38.76
2022-09-06T14:34:31.246Z,38.53
2022-09-06T14:36:59.605Z,38.96
2022-09-06T14:39:27.866Z,38.07
2022-09-06T14:41:55.905Z,37.97
2022-09-06T14:44:23.881Z,38.65
2022-09-06T14:46:53.566Z,38.92
2022-09-06T14:49:21.760Z,38.52
2022-09-06T14:51:49.610Z,39.14
2022-09-06T14:54:17.491Z,39.69
2022-09-06T14:56:45.419Z,38.99
2022-09-06T14:59:13.839Z,38.45
2022-09-06T15:01:41.799Z,38.15
2022-09-06T15:04:10.729Z,40.02
2022-09-06T15:06:41.158Z,41.08
2022-09-06T15:09:11.519Z,41.01
2022-09-06T15:11:44.239Z,41.78
2022-09-06T15:14:16.920Z,42.69
2022-09-06T15:16:45.809Z,41.51
2022-09-06T15:19:14.335Z,43.29
2022-09-06T15:21:42.812Z,43.02
2022-09-06T15:24:12.181Z,43.52
2022-09-06T15:26:41.472Z,44.97
2022-09-06T15:29:09.897Z,45.35
2022-09-06T15:31:38.594Z,45.34
2022-09-06T15:34:08.146Z,46.55
2022-09-06T15:36:36.677Z,47.30
2022-09-06T15:39:05.651Z,48.02
2022-09-06T15:41:35.710Z,48.92
2022-09-06T15:44:12.041Z,49.50
2022-09-06T15:46:44.685Z,49.61
2022-09-06T15:49:16.058Z,49.93
2022-09-06T15:51:45.381Z,51.13
2022-09-06T15:54:14.518Z,51.38
2022-09-06T15:56:43.117Z,51.56
2022-09-06T15:59:12.211Z,51.59
2022-09-06T16:01:40.220Z,52.12
2022-09-06T16:04:08.209Z,51.84
2022-09-06T16:06:38.068Z,52.57
2022-09-06T16:09:14.397Z,53.99
2022-09-06T16:11:42.721Z,54.05
2022-09-06T16:14:13.139Z,54.34
2022-09-06T16:16:42.427Z,54.91
2022-09-06T16:19:11.045Z,55.53
2022-09-06T16:21:40.461Z,56.29
2022-09-06T16:24:10.133Z,56.00
2022-09-06T16:26:40.225Z,56.48
2022-09-06T16:29:09.307Z,56.66
2022-09-06T16:31:40.311Z,56.95
2022-09-06T16:34:09.838Z,56.36
2022-09-06T16:36:38.353Z,56.08
2022-09-06T16:39:07.040Z,56.09
2022-09-06T16:41:42.922Z,56.72
2022-09-06T16:44:16.783Z,57.07
2022-09-06T16:46:45.932Z,57.36
2022-09-06T16:49:16.324Z,57.41
2022-09-06T16:51:44.956Z,57.69
2022-09-06T16:54:13.011Z,58.34
2022-09-06T16:56:41.676Z,58.92
2022-09-06T16:59:10.357Z,58.95
2022-09-06T17:01:41.658Z,58.65
2022-09-06T17:04:10.399Z,58.79
2022-09-06T17:06:44.393Z,59.32
2022-09-06T17:09:17.930Z,59.75
2022-09-06T17:11:46.975Z,60.10
2022-09-06T17:14:14.995Z,60.03
2022-09-06T17:17:01.719Z,60.05
2022-09-06T17:19:30.047Z,60.28
2022-09-06T17:21:58.362Z,60.78
2022-09-06T17:24:27.046Z,61.29
2022-09-06T17:26:55.161Z,61.52
2022-09-06T17:29:24.580Z,61.52
2022-09-06T17:31:53.550Z,61.42
2022-09-06T17:34:21.725Z,61.81
2022-09-06T17:36:49.655Z,62.01
2022-09-06T17:39:21.044Z,62.43
2022-09-06T17:41:53.519Z,62.65
2022-09-06T17:44:23.357Z,62.96
2022-09-06T17:47:11.610Z,63.19
2022-09-06T17:49:39.417Z,63.09
2022-09-06T17:52:07.378Z,63.19
2022-09-06T17:54:35.308Z,63.55
2022-09-06T17:57:03.419Z,63.34
2022-09-06T17:59:35.160Z,63.84
2022-09-06T18:02:04.715Z,63.91
2022-09-06T18:04:33.033Z,64.15
2022-09-06T18:07:01.175Z,64.41
2022-09-06T18:09:29.231Z,64.67
2022-09-06T18:11:58.668Z,65.98
2022-09-06T18:14:28.633Z,65.71
2022-09-06T18:16:57.370Z,65.51
2022-09-06T18:19:26.988Z,65.44
2022-09-06T18:21:57.572Z,65.52
2022-09-06T18:24:25.707Z,65.53
2022-09-06T18:26:53.661Z,65.54
2022-09-06T18:29:43.393Z,65.67
2022-09-06T18:32:12.266Z,65.69
2022-09-06T18:34:40.104Z,65.82
2022-09-06T18:37:08.856Z,65.81
2022-09-06T18:39:36.837Z,66.04
2022-09-06T18:42:11.160Z,66.13
2022-09-06T18:44:39.085Z,66.26
2022-09-06T18:47:14.127Z,66.41
2022-09-06T18:50:09.185Z,66.85
2022-09-06T18:52:56.029Z,66.56
2022-09-06T18:55:24.993Z,66.62
2022-09-06T18:57:53.680Z,66.57
2022-09-06T19:00:21.605Z,65.60
2022-09-06T19:02:49.479Z,66.21
2022-09-06T19:05:17.677Z,67.31
2022-09-06T19:07:45.553Z,67.47
2022-09-06T19:10:13.884Z,66.73
2022-09-06T19:12:41.831Z,67.47
2022-09-06T19:15:10.852Z,67.66
2022-09-06T19:17:39.136Z,67.58
2022-09-06T19:20:09.093Z,67.65
2022-09-06T19:22:37.018Z,67.75
2022-09-06T19:25:06.056Z,67.24
2022-09-06T19:27:34.698Z,67.16
2022-09-06T19:30:03.018Z,68.04
2022-09-06T19:32:34.980Z,68.53
2022-09-06T19:35:03.398Z,68.88
2022-09-06T19:37:31.762Z,68.96
2022-09-06T19:39:59.796Z,68.62
2022-09-06T19:42:27.797Z,68.56
2022-09-06T19:44:55.795Z,68.64
2022-09-06T19:47:23.738Z,69.03
2022-09-06T19:49:51.846Z,69.32
2022-09-06T19:52:20.499Z,68.94
2022-09-06T19:54:48.397Z,68.06
2022-09-06T19:57:16.327Z,68.93
2022-09-06T19:59:44.152Z,69.31
2022-09-06T20:02:12.033Z,69.45
2022-09-06T20:04:40.005Z,69.49
2022-09-06T20:07:07.865Z,69.48
2022-09-06T20:09:36.014Z,69.59
2022-09-06T20:12:04.009Z,69.94
2022-09-06T20:14:32.185Z,70.01
2022-09-06T20:17:22.677Z,69.79
2022-09-06T20:19:48.908Z,70.04
2022-09-06T20:22:17.021Z,70.31
2022-09-06T20:24:45.130Z,70.29
2022-09-06T20:27:13.061Z,70.26
2022-09-06T20:29:40.934Z,70.46
2022-09-06T20:32:08.816Z,70.65
2022-09-06T20:34:36.705Z,70.83
2022-09-06T20:37:04.548Z,71.39
2022-09-06T20:39:32.580Z,71.31
2022-09-06T20:42:00.546Z,71.20
2022-09-06T20:44:28.438Z,71.12
2022-09-06T20:46:56.531Z,71.40
2022-09-06T20:49:24.623Z,71.62
2022-09-06T20:51:52.529Z,71.60
2022-09-06T20:54:20.560Z,71.53
2022-09-06T20:56:48.854Z,71.76
2022-09-06T20:59:16.807Z,72.27
2022-09-06T21:01:48.246Z,72.35
2022-09-06T21:04:21.785Z,72.15
2022-09-06T21:06:51.040Z,72.15
2022-09-06T21:09:19.053Z,72.00
2022-09-06T21:11:47.923Z,72.29
2022-09-06T21:14:15.936Z,72.46
2022-09-06T21:16:43.915Z,72.42
2022-09-06T21:19:13.023Z,72.43
2022-09-06T21:21:41.441Z,72.43
2022-09-06T21:24:10.023Z,72.61
2022-09-06T21:26:38.503Z,72.62
2022-09-06T21:29:06.707Z,72.74
2022-09-06T21:31:36.574Z,72.68
2022-09-06T21:34:07.341Z,72.53
2022-09-06T21:36:36.852Z,72.97
2022-09-06T21:39:10.401Z,73.07
2022-09-06T21:41:39.290Z,73.10
2022-09-06T21:44:07.873Z,73.01
2022-09-06T21:46:36.899Z,73.24
2022-09-06T21:49:07.489Z,73.22
2022-09-06T21:51:36.131Z,73.57
2022-09-06T21:54:05.136Z,73.69
2022-09-06T21:56:34.269Z,73.69
2022-09-06T21:59:02.385Z,73.79
2022-09-06T22:01:32.027Z,73.87
2022-09-06T22:04:00.535Z,74.18
2022-09-06T22:06:29.467Z,74.02
2022-09-06T22:08:58.370Z,73.82
2022-09-06T22:11:27.454Z,74.28
2022-09-06T22:13:58.637Z,74.56
2022-09-06T22:16:28.130Z,74.59
2022-09-06T22:18:56.112Z,74.81
2022-09-06T22:21:24.703Z,74.74
2022-09-06T22:24:00.228Z,75.13
2022-09-06T22:26:29.193Z,75.29
2022-09-06T22:28:58.290Z,75.43
2022-09-06T22:31:27.061Z,75.47
2022-09-06T22:33:55.018Z,75.43
2022-09-06T22:36:24.097Z,76.39
2022-09-06T22:38:56.455Z,76.18
2022-09-06T22:41:28.537Z,76.04
2022-09-06T22:43:56.600Z,76.09
2022-09-06T22:46:24.481Z,76.29
2022-09-06T22:48:52.490Z,76.16
2022-09-06T22:51:20.444Z,76.16
2022-09-06T22:53:48.419Z,76.94
2022-09-06T22:56:16.486Z,76.61
2022-09-06T22:58:44.520Z,76.19
2022-09-06T23:01:13.604Z,75.90
2022-09-06T23:03:43.166Z,76.71
2022-09-06T23:06:11.084Z,77.94
2022-09-06T23:08:39.840Z,77.24
2022-09-06T23:11:09.110Z,77.95
2022-09-06T23:13:37.667Z,77.57
2022-09-06T23:16:06.381Z,77.38
2022-09-06T23:18:34.717Z,77.14
2022-09-06T23:21:09.918Z,76.85
2022-09-06T23:23:41.318Z,76.45
2022-09-06T23:26:10.965Z,76.89
2022-09-06T23:28:39.308Z,77.83
2022-09-06T23:31:08.533Z,77.64
2022-09-06T23:33:37.348Z,77.50
2022-09-06T23:36:06.140Z,78.52
2022-09-06T23:38:35.129Z,79.70
2022-09-06T23:41:03.581Z,77.69
2022-09-06T23:43:31.703Z,77.16
2022-09-06T23:45:59.510Z,78.04
2022-09-06T23:48:27.398Z,78.50
2022-09-06T23:50:55.225Z,77.70
2022-09-06T23:53:23.131Z,78.45
2022-09-06T23:55:51.120Z,78.28
2022-09-06T23:58:19.476Z,77.79
